createdAt,value
2019-03-03T00:00:31.527Z,1005.93
2019-03-03T00:01:30.947Z,1005.86
2019-03-03T00:02:30.979Z,1005.93
2019-03-03T00:03:31.006Z,1005.89
2019-03-03T00:04:31.038Z,1005.93
2019-03-03T00:05:31.063Z,1005.94
2019-03-03T00:06:31.091Z,1005.89
2019-03-03T00:07:31.119Z,1005.91
2019-03-03T00:08:31.589Z,1005.85
2019-03-03T00:09:31.178Z,1005.82
2019-03-03T00:10:31.205Z,1005.80
2019-03-03T00:11:31.232Z,1005.74
2019-03-03T00:12:31.261Z,1005.81
2019-03-03T00:13:31.291Z,1005.72
2019-03-03T00:14:31.320Z,1005.70
2019-03-03T00:15:31.347Z,1005.68
2019-03-03T00:16:31.377Z,1005.71
2019-03-03T00:17:31.405Z,1005.64
2019-03-03T00:18:31.434Z,1005.60
2019-03-03T00:19:31.463Z,1005.59
2019-03-03T00:20:31.493Z,1005.67
2019-03-03T00:21:31.521Z,1005.62
2019-03-03T00:22:31.552Z,1005.57
2019-03-03T00:23:31.576Z,1005.59
2019-03-03T00:24:31.604Z,1005.53
2019-03-03T00:25:31.634Z,1005.53
2019-03-03T00:26:31.672Z,1005.55
2019-03-03T00:27:31.690Z,1005.59
2019-03-03T00:28:31.718Z,1005.44
2019-03-03T00:29:31.747Z,1005.47
2019-03-03T00:30:31.777Z,1005.49
2019-03-03T00:31:31.804Z,1005.48
2019-03-03T00:32:31.833Z,1005.47
2019-03-03T00:33:31.862Z,1005.41
2019-03-03T00:34:31.890Z,1005.48
2019-03-03T00:35:31.918Z,1005.40
2019-03-03T00:36:31.946Z,1005.43
2019-03-03T00:37:31.975Z,1005.44
2019-03-03T00:38:32.004Z,1005.42
2019-03-03T00:39:32.033Z,1005.44
2019-03-03T00:40:32.062Z,1005.43
2019-03-03T00:41:32.092Z,1005.41
2019-03-03T00:42:32.119Z,1005.39
2019-03-03T00:43:32.146Z,1005.34
2019-03-03T00:44:32.175Z,1005.33
2019-03-03T00:45:32.206Z,1005.31
2019-03-03T00:46:32.247Z,1005.37
2019-03-03T00:47:32.260Z,1005.35
2019-03-03T00:48:32.291Z,1005.30
2019-03-03T00:49:32.317Z,1005.28
2019-03-03T00:50:32.347Z,1005.36
2019-03-03T00:51:32.375Z,1005.32
2019-03-03T00:52:32.402Z,1005.33
2019-03-03T00:53:32.432Z,1005.34
2019-03-03T00:54:32.461Z,1005.34
2019-03-03T00:55:32.489Z,1005.37
2019-03-03T00:56:32.518Z,1005.33
2019-03-03T00:57:32.547Z,1005.26
2019-03-03T00:58:32.578Z,1005.29
2019-03-03T00:59:32.602Z,1005.22
2019-03-03T01:00:32.630Z,1005.21
2019-03-03T01:01:32.660Z,1005.25
2019-03-03T01:02:32.691Z,1005.28
2019-03-03T01:03:32.716Z,1005.26
2019-03-03T01:04:32.745Z,1005.26
2019-03-03T01:05:32.774Z,1005.28
2019-03-03T01:06:32.803Z,1005.31
2019-03-03T01:07:33.041Z,1005.28
2019-03-03T01:08:32.860Z,1005.28
2019-03-03T01:09:32.887Z,1005.29
2019-03-03T01:10:32.917Z,1005.26
2019-03-03T01:11:32.946Z,1005.28
2019-03-03T01:12:32.974Z,1005.29
2019-03-03T01:13:33.005Z,1005.23
2019-03-03T01:14:33.032Z,1005.21
2019-03-03T01:15:33.059Z,1005.24
2019-03-03T01:16:33.089Z,1005.25
2019-03-03T01:17:33.117Z,1005.24
2019-03-03T01:18:33.147Z,1005.21
2019-03-03T01:19:33.174Z,1005.23
2019-03-03T01:20:33.227Z,1005.28
2019-03-03T01:21:33.233Z,1005.27
2019-03-03T01:22:33.262Z,1005.27
2019-03-03T01:23:33.291Z,1005.27
2019-03-03T01:24:33.318Z,1005.30
2019-03-03T01:25:33.347Z,1005.20
2019-03-03T01:26:33.381Z,1005.21
2019-03-03T01:27:33.404Z,1005.23
2019-03-03T01:28:33.433Z,1005.26
2019-03-03T01:29:33.462Z,1005.25
2019-03-03T01:30:33.493Z,1005.22
2019-03-03T01:31:33.521Z,1005.23
2019-03-03T01:32:33.548Z,1005.21
2019-03-03T01:33:33.581Z,1005.22
2019-03-03T01:34:33.607Z,1005.18
2019-03-03T01:35:33.636Z,1005.14
2019-03-03T01:36:33.672Z,1005.12
2019-03-03T01:37:33.692Z,1005.11
2019-03-03T01:38:33.721Z,1005.11
2019-03-03T01:39:33.751Z,1005.11
2019-03-03T01:40:33.778Z,1005.11
2019-03-03T01:41:33.807Z,1005.05
2019-03-03T01:42:33.836Z,1005.05
2019-03-03T01:43:33.864Z,1005.07
2019-03-03T01:44:33.895Z,1005.06
2019-03-03T01:45:33.936Z,1005.00
2019-03-03T01:46:34.012Z,1005.01
2019-03-03T01:47:33.982Z,1004.97
2019-03-03T01:48:34.009Z,1004.90
2019-03-03T01:49:34.036Z,1004.91
2019-03-03T01:50:34.075Z,1004.90
2019-03-03T01:51:34.099Z,1004.93
2019-03-03T01:52:34.123Z,1004.90
2019-03-03T01:53:34.182Z,1004.88
2019-03-03T01:54:34.181Z,1004.90
2019-03-03T01:55:34.209Z,1004.85
2019-03-03T01:56:34.238Z,1004.85
2019-03-03T01:57:34.270Z,1004.84
2019-03-03T01:58:34.295Z,1004.80
2019-03-03T01:59:34.326Z,1004.77
2019-03-03T02:00:35.085Z,1004.83
2019-03-03T02:01:34.381Z,1004.73
2019-03-03T02:02:34.410Z,1004.73
2019-03-03T02:03:34.484Z,1004.73
2019-03-03T02:04:34.468Z,1004.70
2019-03-03T02:05:34.498Z,1004.73
2019-03-03T02:06:34.526Z,1004.65
2019-03-03T02:07:34.558Z,1004.58
2019-03-03T02:08:34.582Z,1004.62
2019-03-03T02:09:34.612Z,1004.64
2019-03-03T02:10:34.642Z,1004.71
2019-03-03T02:11:34.669Z,1004.68
2019-03-03T02:12:34.700Z,1004.71
2019-03-03T02:13:34.737Z,1004.69
2019-03-03T02:14:34.759Z,1004.72
2019-03-03T02:15:34.783Z,1004.71
2019-03-03T02:16:34.812Z,1004.68
2019-03-03T02:17:34.844Z,1004.69
2019-03-03T02:18:34.905Z,1004.65
2019-03-03T02:19:35.284Z,1004.60
2019-03-03T02:20:34.927Z,1004.62
2019-03-03T02:21:34.957Z,1004.57
2019-03-03T02:22:34.986Z,1004.53
2019-03-03T02:23:35.015Z,1004.50
2019-03-03T02:24:35.044Z,1004.53
2019-03-03T02:25:35.071Z,1004.50
2019-03-03T02:26:35.100Z,1004.49
2019-03-03T02:27:35.128Z,1004.67
2019-03-03T02:28:35.157Z,1004.45
2019-03-03T02:29:35.186Z,1004.43
2019-03-03T02:30:35.216Z,1004.41
2019-03-03T02:31:35.245Z,1004.37
2019-03-03T02:32:35.275Z,1004.43
2019-03-03T02:33:35.305Z,1004.38
2019-03-03T02:34:35.332Z,1004.42
2019-03-03T02:35:35.416Z,1004.44
2019-03-03T02:36:35.388Z,1004.32
2019-03-03T02:37:35.417Z,1004.37
2019-03-03T02:38:35.450Z,1004.35
2019-03-03T02:39:35.476Z,1004.36
2019-03-03T02:40:35.506Z,1004.37
2019-03-03T02:41:35.531Z,1004.32
2019-03-03T02:42:35.562Z,1004.36
2019-03-03T02:43:35.590Z,1004.26
2019-03-03T02:44:35.623Z,1004.29
2019-03-03T02:45:35.650Z,1004.34
2019-03-03T02:46:35.679Z,1004.33
2019-03-03T02:47:35.708Z,1004.30
2019-03-03T02:48:35.734Z,1004.22
2019-03-03T02:49:35.763Z,1004.22
2019-03-03T02:50:35.793Z,1004.23
2019-03-03T02:51:35.821Z,1004.22
2019-03-03T02:52:35.849Z,1004.24
2019-03-03T02:53:35.878Z,1004.24
2019-03-03T02:54:35.909Z,1004.26
2019-03-03T02:55:35.935Z,1004.22
2019-03-03T02:56:35.973Z,1004.23
2019-03-03T02:57:35.994Z,1004.23
2019-03-03T02:58:36.022Z,1004.20
2019-03-03T02:59:36.050Z,1004.17
2019-03-03T03:00:36.086Z,1004.22
2019-03-03T03:01:36.111Z,1004.24
2019-03-03T03:02:36.140Z,1004.25
2019-03-03T03:03:36.168Z,1004.24
2019-03-03T03:04:36.197Z,1004.26
2019-03-03T03:05:36.224Z,1004.24
2019-03-03T03:06:36.256Z,1004.28
2019-03-03T03:07:36.283Z,1004.24
2019-03-03T03:08:36.311Z,1004.26
2019-03-03T03:09:36.341Z,1004.23
2019-03-03T03:10:36.368Z,1004.21
2019-03-03T03:11:36.398Z,1004.19
2019-03-03T03:12:36.433Z,1004.11
2019-03-03T03:13:36.456Z,1004.18
2019-03-03T03:14:36.484Z,1004.13
2019-03-03T03:15:36.512Z,1004.11
2019-03-03T03:16:36.553Z,1004.05
2019-03-03T03:17:36.573Z,1004.04
2019-03-03T03:18:36.601Z,1004.04
2019-03-03T03:19:36.629Z,1003.99
2019-03-03T03:20:36.657Z,1003.97
2019-03-03T03:21:36.688Z,1003.93
2019-03-03T03:22:36.717Z,1004.00
2019-03-03T03:23:36.746Z,1003.90
2019-03-03T03:24:36.775Z,1003.93
2019-03-03T03:25:36.804Z,1003.92
2019-03-03T03:26:36.835Z,1003.93
2019-03-03T03:27:36.860Z,1003.85
2019-03-03T03:28:36.891Z,1003.83
2019-03-03T03:29:36.921Z,1003.85
2019-03-03T03:30:36.950Z,1003.86
2019-03-03T03:31:36.991Z,1003.88
2019-03-03T03:32:37.007Z,1003.82
2019-03-03T03:33:37.037Z,1003.80
2019-03-03T03:34:37.065Z,1003.77
2019-03-03T03:35:37.102Z,1003.75
2019-03-03T03:36:37.168Z,1003.73
2019-03-03T03:37:37.192Z,1003.79
2019-03-03T03:38:37.182Z,1003.72
2019-03-03T03:39:37.232Z,1003.70
2019-03-03T03:40:37.240Z,1003.71
2019-03-03T03:41:37.272Z,1003.66
2019-03-03T03:42:37.299Z,1003.69
2019-03-03T03:43:37.327Z,1003.62
2019-03-03T03:44:37.355Z,1003.62
2019-03-03T03:45:37.385Z,1003.63
2019-03-03T03:46:37.416Z,1003.62
2019-03-03T03:47:37.454Z,1003.53
2019-03-03T03:48:37.496Z,1003.56
2019-03-03T03:49:37.510Z,1003.50
2019-03-03T03:50:37.531Z,1003.50
2019-03-03T03:51:37.560Z,1003.46
2019-03-03T03:52:37.592Z,1003.42
2019-03-03T03:53:37.620Z,1003.44
2019-03-03T03:54:37.649Z,1003.42
2019-03-03T03:55:37.741Z,1003.43
2019-03-03T03:56:37.707Z,1003.48
2019-03-03T03:57:37.742Z,1003.41
2019-03-03T03:58:37.770Z,1003.37
2019-03-03T03:59:37.794Z,1003.36
2019-03-03T04:00:37.825Z,1003.38
2019-03-03T04:01:37.854Z,1003.39
2019-03-03T04:02:37.884Z,1003.33
2019-03-03T04:03:37.912Z,1003.37
2019-03-03T04:04:37.941Z,1003.38
2019-03-03T04:05:37.971Z,1003.38
2019-03-03T04:06:38.000Z,1003.39
2019-03-03T04:07:38.028Z,1003.37
2019-03-03T04:08:38.059Z,1003.34
2019-03-03T04:09:38.132Z,1003.32
2019-03-03T04:10:38.121Z,1003.27
2019-03-03T04:11:38.146Z,1003.27
2019-03-03T04:12:38.174Z,1003.22
2019-03-03T04:13:38.206Z,1003.21
2019-03-03T04:14:38.240Z,1003.24
2019-03-03T04:15:38.263Z,1003.23
2019-03-03T04:16:38.299Z,1003.10
2019-03-03T04:17:38.320Z,1003.14
2019-03-03T04:18:38.351Z,1003.13
2019-03-03T04:19:38.379Z,1003.04
2019-03-03T04:20:38.410Z,1003.04
2019-03-03T04:21:38.448Z,1003.01
2019-03-03T04:22:38.469Z,1003.08
2019-03-03T04:23:38.500Z,1003.03
2019-03-03T04:24:38.525Z,1002.98
2019-03-03T04:25:38.554Z,1003.00
2019-03-03T04:26:38.587Z,1003.02
2019-03-03T04:27:38.614Z,1002.96
2019-03-03T04:28:38.643Z,1002.95
2019-03-03T04:29:38.672Z,1002.94
2019-03-03T04:30:38.701Z,1002.92
2019-03-03T04:31:38.731Z,1002.91
2019-03-03T04:32:38.760Z,1002.90
2019-03-03T04:33:38.789Z,1002.95
2019-03-03T04:34:38.818Z,1002.91
2019-03-03T04:35:38.846Z,1002.92
2019-03-03T04:36:38.878Z,1002.90
2019-03-03T04:37:38.910Z,1002.89
2019-03-03T04:38:38.936Z,1002.95
2019-03-03T04:39:38.965Z,1002.94
2019-03-03T04:40:38.995Z,1002.96
2019-03-03T04:41:39.024Z,1002.92
2019-03-03T04:42:39.053Z,1002.93
2019-03-03T04:43:39.082Z,1002.91
2019-03-03T04:44:39.112Z,1002.83
2019-03-03T04:45:39.143Z,1002.95
2019-03-03T04:46:39.172Z,1002.93
2019-03-03T04:47:39.200Z,1002.93
2019-03-03T04:48:39.229Z,1002.89
2019-03-03T04:49:39.258Z,1002.88
2019-03-03T04:50:39.287Z,1002.84
2019-03-03T04:51:39.317Z,1002.83
2019-03-03T04:52:39.346Z,1002.84
2019-03-03T04:53:39.375Z,1002.84
2019-03-03T04:54:39.406Z,1002.82
2019-03-03T04:55:39.434Z,1002.83
2019-03-03T04:56:39.463Z,1002.77
2019-03-03T04:57:39.494Z,1002.72
2019-03-03T04:58:39.523Z,1002.67
2019-03-03T04:59:39.558Z,1002.76
2019-03-03T05:00:39.581Z,1002.83
2019-03-03T05:01:39.611Z,1002.86
2019-03-03T05:02:39.639Z,1002.80
2019-03-03T05:03:39.669Z,1002.75
2019-03-03T05:04:39.700Z,1002.81
2019-03-03T05:05:39.729Z,1002.81
2019-03-03T05:06:39.759Z,1002.85
2019-03-03T05:07:39.810Z,1002.83
2019-03-03T05:08:39.818Z,1002.76
2019-03-03T05:09:39.847Z,1002.77
2019-03-03T05:10:39.875Z,1002.82
2019-03-03T05:11:39.906Z,1002.78
2019-03-03T05:12:39.935Z,1002.79
2019-03-03T05:13:39.966Z,1002.74
2019-03-03T05:14:47.154Z,1002.76
2019-03-03T05:16:44.015Z,1002.72
2019-03-03T05:17:44.039Z,1002.73
2019-03-03T05:19:48.081Z,1002.71
2019-03-03T05:20:48.104Z,1002.67
2019-03-03T05:22:52.136Z,1002.69
2019-03-03T05:23:52.153Z,1002.68
2019-03-03T05:25:45.103Z,1002.69
2019-03-03T05:26:45.124Z,1002.67
2019-03-03T05:28:49.149Z,1002.65
2019-03-03T05:29:49.174Z,1002.62
2019-03-03T05:31:53.196Z,1002.62
2019-03-03T05:32:53.221Z,1002.60
2019-03-03T05:34:57.243Z,1002.57
2019-03-03T05:35:57.269Z,1002.68
2019-03-03T05:38:03.201Z,1002.61
2019-03-03T05:39:01.316Z,1002.55
2019-03-03T05:41:05.354Z,1002.53
2019-03-03T05:42:05.364Z,1002.58
2019-03-03T05:44:09.385Z,1002.47
2019-03-03T05:45:09.408Z,1002.40
2019-03-03T05:47:13.433Z,1002.34
2019-03-03T05:48:13.457Z,1002.30
2019-03-03T05:55:33.437Z,1002.30
2019-03-03T05:56:26.316Z,1002.29
2019-03-03T05:58:30.338Z,1002.31
2019-03-03T05:59:30.362Z,1002.32
2019-03-03T06:01:34.401Z,1002.31
2019-03-03T06:02:34.414Z,1002.34
2019-03-03T06:04:38.437Z,1002.28
2019-03-03T06:05:38.459Z,1002.31
2019-03-03T06:07:42.487Z,1002.24
2019-03-03T06:08:42.502Z,1002.20
2019-03-03T06:10:46.527Z,1002.24
2019-03-03T06:11:46.553Z,1002.25
2019-03-03T06:13:50.577Z,1002.22
2019-03-03T06:14:50.603Z,1002.19
2019-03-03T06:16:54.646Z,1002.23
2019-03-03T06:17:54.648Z,1002.16
2019-03-03T06:19:58.671Z,1002.22
2019-03-03T06:20:58.695Z,1002.14
2019-03-03T06:23:02.719Z,1002.12
2019-03-03T06:24:02.748Z,1002.18
2019-03-03T06:26:06.764Z,1002.18
2019-03-03T06:27:06.789Z,1002.24
2019-03-03T06:29:10.830Z,1002.14
2019-03-03T06:30:10.838Z,1002.15
2019-03-03T06:32:14.864Z,1002.11
2019-03-03T06:33:14.890Z,1002.11
2019-03-03T06:35:07.840Z,1002.04
2019-03-03T06:36:07.866Z,1002.06
2019-03-03T06:38:11.889Z,1002.04
2019-03-03T06:39:11.912Z,1001.94
2019-03-03T06:41:15.936Z,1001.95
2019-03-03T06:42:15.963Z,1001.95
2019-03-03T06:44:20.008Z,1001.89
2019-03-03T06:45:20.013Z,1001.91
2019-03-03T06:47:24.036Z,1001.86
2019-03-03T06:48:24.062Z,1001.90
2019-03-03T06:50:28.090Z,1001.83
2019-03-03T06:51:28.114Z,1001.93
2019-03-03T06:53:32.135Z,1001.85
2019-03-03T06:54:32.161Z,1001.81
2019-03-03T06:56:36.207Z,1001.79
2019-03-03T06:57:36.211Z,1001.77
2019-03-03T06:59:40.235Z,1001.73
2019-03-03T07:00:40.260Z,1001.76
2019-03-03T07:02:44.281Z,1001.78
2019-03-03T07:03:44.308Z,1001.80
2019-03-03T07:05:37.256Z,1001.73
2019-03-03T07:06:37.281Z,1001.84
2019-03-03T07:08:41.306Z,1001.70
2019-03-03T07:09:41.330Z,1001.68
2019-03-03T07:11:45.395Z,1001.73
2019-03-03T07:12:45.378Z,1001.67
2019-03-03T07:14:49.403Z,1001.76
2019-03-03T07:15:49.428Z,1001.73
2019-03-03T07:17:53.453Z,1001.69
2019-03-03T07:18:53.477Z,1001.69
2019-03-03T07:20:57.501Z,1001.72
2019-03-03T07:21:57.526Z,1001.71
2019-03-03T07:24:01.573Z,1001.71
2019-03-03T07:25:01.581Z,1001.62
2019-03-03T07:27:05.604Z,1001.68
2019-03-03T07:28:05.629Z,1001.65
2019-03-03T07:30:09.653Z,1001.77
2019-03-03T07:31:09.677Z,1001.69
2019-03-03T07:33:13.724Z,1001.63
2019-03-03T07:34:13.724Z,1001.67
2019-03-03T07:36:17.748Z,1001.62
2019-03-03T07:37:17.775Z,1001.57
2019-03-03T07:39:21.824Z,1001.53
2019-03-03T07:40:21.820Z,1001.54
2019-03-03T07:42:25.843Z,1001.53
2019-03-03T07:43:25.893Z,1001.47
2019-03-03T07:45:18.818Z,1001.57
2019-03-03T07:46:18.844Z,1001.48
2019-03-03T07:48:22.869Z,1001.53
2019-03-03T07:49:22.895Z,1001.50
2019-03-03T07:51:26.920Z,1001.49
2019-03-03T07:52:26.971Z,1001.39
2019-03-03T07:54:31.003Z,1001.64
2019-03-03T07:55:30.996Z,1001.47
2019-03-03T07:57:35.025Z,1001.41
2019-03-03T07:58:35.052Z,1001.44
2019-03-03T08:00:39.112Z,1001.43
2019-03-03T08:01:39.097Z,1001.36
2019-03-03T08:03:43.125Z,1001.47
2019-03-03T08:04:43.153Z,1001.39
2019-03-03T08:06:47.190Z,1001.44
2019-03-03T08:07:47.201Z,1001.38
2019-03-03T08:09:51.225Z,1001.40
2019-03-03T08:10:51.252Z,1001.35
2019-03-03T08:12:55.277Z,1001.34
2019-03-03T08:13:55.302Z,1001.33
2019-03-03T08:15:59.328Z,1001.27
2019-03-03T08:16:59.353Z,1001.28
2019-03-03T08:19:03.380Z,1001.22
2019-03-03T08:20:03.406Z,1001.24
2019-03-03T08:22:07.433Z,1001.18
2019-03-03T08:23:07.461Z,1001.24
2019-03-03T08:25:00.442Z,1001.26
2019-03-03T08:26:00.467Z,1001.19
2019-03-03T08:28:04.517Z,1001.23
2019-03-03T08:29:04.520Z,1001.27
2019-03-03T08:31:08.547Z,1001.17
2019-03-03T08:32:08.571Z,1001.21
2019-03-03T08:34:12.630Z,1001.10
2019-03-03T08:35:12.623Z,1001.23
2019-03-03T08:37:16.655Z,1001.04
2019-03-03T08:38:16.680Z,1001.22
2019-03-03T08:40:20.718Z,1001.12
2019-03-03T08:41:20.737Z,1001.14
2019-03-03T08:43:24.764Z,1001.29
2019-03-03T08:44:24.786Z,1001.11
2019-03-03T08:46:28.815Z,1001.21
2019-03-03T08:47:28.836Z,1001.28
2019-03-03T08:49:32.900Z,1001.35
2019-03-03T08:50:32.889Z,1001.35
2019-03-03T08:52:36.917Z,1001.21
2019-03-03T08:53:36.942Z,1001.37
2019-03-03T08:55:29.909Z,1001.31
2019-03-03T08:56:29.916Z,1001.31
2019-03-03T08:58:33.943Z,1001.18
2019-03-03T08:59:33.969Z,1001.23
2019-03-03T09:01:38.003Z,1001.11
2019-03-03T09:02:38.032Z,1001.18
2019-03-03T09:04:42.053Z,1001.04
2019-03-03T09:05:42.083Z,1001.30
2019-03-03T09:07:46.109Z,1001.13
2019-03-03T09:08:46.136Z,1001.41
2019-03-03T09:10:50.159Z,1001.17
2019-03-03T09:11:50.185Z,1001.32
2019-03-03T09:13:54.215Z,1001.21
2019-03-03T09:14:54.241Z,1001.22
2019-03-03T09:16:58.266Z,1001.15
2019-03-03T09:17:58.294Z,1001.14
2019-03-03T09:20:02.320Z,1001.16
2019-03-03T09:21:02.345Z,1001.16
2019-03-03T09:23:06.369Z,1001.26
2019-03-03T09:24:06.397Z,1001.27
2019-03-03T09:26:10.424Z,1001.34
2019-03-03T09:27:10.449Z,1001.36
2019-03-03T09:29:14.476Z,1001.26
2019-03-03T09:30:14.501Z,1001.22
2019-03-03T09:32:18.533Z,1001.28
2019-03-03T09:33:18.555Z,1001.22
2019-03-03T09:35:11.507Z,1001.26
2019-03-03T09:36:11.535Z,1001.26
2019-03-03T09:38:15.563Z,1001.30
2019-03-03T09:39:15.590Z,1001.25
2019-03-03T09:41:19.624Z,1001.25
2019-03-03T09:42:19.652Z,1001.14
2019-03-03T09:44:23.680Z,1001.27
2019-03-03T09:45:23.705Z,1001.26
2019-03-03T09:47:27.735Z,1001.23
2019-03-03T09:48:27.761Z,1001.22
2019-03-03T09:50:31.790Z,1001.29
2019-03-03T09:51:31.818Z,1001.19
2019-03-03T09:53:35.841Z,1001.32
2019-03-03T09:54:35.871Z,1001.33
2019-03-03T09:56:39.898Z,1001.44
2019-03-03T09:57:39.921Z,1001.37
2019-03-03T09:59:43.948Z,1001.28
2019-03-03T10:00:43.975Z,1001.27
2019-03-03T10:02:48.007Z,1001.26
2019-03-03T10:03:48.027Z,1001.32
2019-03-03T10:05:40.978Z,1001.31
2019-03-03T10:06:41.004Z,1001.29
2019-03-03T10:08:45.034Z,1001.38
2019-03-03T10:09:45.058Z,1001.28
2019-03-03T10:11:49.083Z,1001.31
2019-03-03T10:12:49.109Z,1001.29
2019-03-03T10:14:53.159Z,1001.30
2019-03-03T10:15:53.166Z,1001.33
2019-03-03T10:17:57.194Z,1001.36
2019-03-03T10:19:06.783Z,1001.37
2019-03-03T10:21:03.177Z,1001.34
2019-03-03T10:22:01.271Z,1001.54
2019-03-03T10:24:05.299Z,1001.43
2019-03-03T10:25:05.329Z,1001.39
2019-03-03T10:27:09.355Z,1001.56
2019-03-03T10:28:09.379Z,1001.53
2019-03-03T10:30:13.412Z,1001.43
2019-03-03T10:31:13.442Z,1001.50
2019-03-03T10:33:17.467Z,1001.45
2019-03-03T10:34:17.504Z,1001.45
2019-03-03T10:36:21.896Z,1001.51
2019-03-03T10:37:21.552Z,1001.47
2019-03-03T10:39:25.584Z,1001.46
2019-03-03T10:40:25.608Z,1001.51
2019-03-03T10:42:29.638Z,1001.43
2019-03-03T10:43:29.662Z,1001.39
2019-03-03T10:45:22.613Z,1001.39
2019-03-03T10:46:22.640Z,1001.47
2019-03-03T10:48:26.803Z,1001.40
2019-03-03T10:49:26.792Z,1001.39
2019-03-03T10:51:32.669Z,1001.42
2019-03-03T10:52:30.846Z,1001.41
2019-03-03T10:54:42.865Z,1001.42
2019-03-03T10:55:34.902Z,1001.45
2019-03-03T10:57:38.930Z,1001.39
2019-03-03T10:58:38.956Z,1001.49
2019-03-03T11:00:42.991Z,1001.42
2019-03-03T11:01:43.011Z,1001.32
2019-03-03T11:02:43.043Z,1001.39
2019-03-03T11:03:43.074Z,1001.38
2019-03-03T11:04:43.107Z,1001.36
2019-03-03T11:05:43.136Z,1001.36
2019-03-03T11:06:43.171Z,1001.32
2019-03-03T11:07:43.202Z,1001.40
2019-03-03T11:08:43.233Z,1001.32
2019-03-03T11:09:43.265Z,1001.32
2019-03-03T11:10:43.296Z,1001.31
2019-03-03T11:11:43.328Z,1001.33
2019-03-03T11:12:43.360Z,1001.39
2019-03-03T11:13:43.394Z,1001.41
2019-03-03T11:14:43.426Z,1001.34
2019-03-03T11:15:50.614Z,1001.34
2019-03-03T11:17:45.702Z,1001.30
2019-03-03T11:18:55.610Z,1001.29
2019-03-03T11:20:48.877Z,1001.43
2019-03-03T11:21:48.908Z,1001.27
2019-03-03T11:23:52.584Z,1001.20
2019-03-03T11:24:52.195Z,1001.39
2019-03-03T11:26:44.192Z,1001.31
2019-03-03T11:27:44.220Z,1001.24
2019-03-03T11:29:47.436Z,1001.24
2019-03-03T11:30:47.446Z,1001.25
2019-03-03T11:32:50.679Z,1001.32
2019-03-03T11:33:50.705Z,1001.23
2019-03-03T11:35:54.775Z,1001.26
2019-03-03T11:36:54.779Z,1001.30
2019-03-03T11:38:58.807Z,1001.31
2019-03-03T11:39:58.833Z,1001.27
2019-03-03T11:42:02.862Z,1001.18
2019-03-03T11:43:02.888Z,1001.27
2019-03-03T11:45:06.938Z,1001.24
2019-03-03T11:46:06.948Z,1001.24
2019-03-03T11:48:10.976Z,1001.30
2019-03-03T11:49:11.002Z,1001.33
2019-03-03T11:51:15.033Z,1001.26
2019-03-03T11:52:16.699Z,1001.10
2019-03-03T11:54:19.092Z,1001.31
2019-03-03T11:55:19.118Z,1001.15
2019-03-03T11:57:23.148Z,1001.18
2019-03-03T11:58:23.178Z,1001.08
2019-03-03T12:00:27.204Z,1001.15
2019-03-03T12:01:27.236Z,1001.11
2019-03-03T12:03:31.284Z,1001.09
2019-03-03T12:04:31.288Z,1001.12
2019-03-03T12:06:24.235Z,1001.14
2019-03-03T12:07:24.261Z,1001.09
2019-03-03T12:09:28.290Z,1001.17
2019-03-03T12:10:28.319Z,1001.11
2019-03-03T12:12:32.344Z,1001.16
2019-03-03T12:13:32.371Z,1001.08
2019-03-03T12:15:36.406Z,1001.14
2019-03-03T12:16:36.428Z,1001.14
2019-03-03T12:18:40.584Z,1001.11
2019-03-03T12:19:40.481Z,1001.12
2019-03-03T12:21:44.511Z,1001.05
2019-03-03T12:22:44.539Z,1001.03
2019-03-03T12:24:48.566Z,1000.98
2019-03-03T12:25:48.593Z,1000.97
2019-03-03T12:27:52.623Z,1000.89
2019-03-03T12:28:52.649Z,1000.94
2019-03-03T12:30:56.678Z,1001.04
2019-03-03T12:31:56.707Z,1001.07
2019-03-03T12:34:00.738Z,1001.03
2019-03-03T12:35:00.768Z,1000.91
2019-03-03T12:36:54.232Z,1000.86
2019-03-03T12:37:53.752Z,1000.82
2019-03-03T12:39:57.774Z,1000.94
2019-03-03T12:40:57.807Z,1000.96
2019-03-03T12:43:01.827Z,1001.00
2019-03-03T12:44:01.853Z,1000.93
2019-03-03T12:45:55.003Z,1000.96
2019-03-03T12:46:55.029Z,1000.92
2019-03-03T12:48:59.058Z,1000.96
2019-03-03T12:49:59.092Z,1000.96
2019-03-03T12:52:03.158Z,1000.94
2019-03-03T12:53:03.141Z,1000.93
2019-03-03T12:55:07.170Z,1000.89
2019-03-03T12:56:07.197Z,1000.97
2019-03-03T12:58:11.351Z,1000.90
2019-03-03T12:59:11.253Z,1000.91
2019-03-03T13:01:15.282Z,1000.87
2019-03-03T13:02:15.306Z,1000.87
2019-03-03T13:04:19.334Z,1000.91
2019-03-03T13:05:19.360Z,1000.79
2019-03-03T13:07:23.389Z,1000.89
2019-03-03T13:08:23.417Z,1000.91
2019-03-03T13:10:27.444Z,1000.82
2019-03-03T13:11:27.471Z,1000.77
2019-03-03T13:13:31.498Z,1000.72
2019-03-03T13:14:31.525Z,1000.75
2019-03-03T13:16:24.477Z,1000.77
2019-03-03T13:17:24.504Z,1000.75
2019-03-03T13:19:28.529Z,1000.71
2019-03-03T13:20:28.556Z,1000.73
2019-03-03T13:22:32.585Z,1000.68
2019-03-03T13:23:32.609Z,1000.68
2019-03-03T13:25:36.639Z,1000.71
2019-03-03T13:26:36.666Z,1000.60
2019-03-03T13:28:40.694Z,1000.64
2019-03-03T13:29:40.720Z,1000.62
2019-03-03T13:31:44.800Z,1000.56
2019-03-03T13:32:44.776Z,1000.50
2019-03-03T13:34:48.806Z,1000.57
2019-03-03T13:35:48.830Z,1000.44
2019-03-03T13:37:52.858Z,1000.54
2019-03-03T13:38:52.886Z,1000.51
2019-03-03T13:40:56.913Z,1000.50
2019-03-03T13:41:56.940Z,1000.39
2019-03-03T13:44:00.973Z,1000.57
2019-03-03T13:45:01.006Z,1000.41
2019-03-03T13:46:53.953Z,1000.37
2019-03-03T13:47:53.981Z,1000.35
2019-03-03T13:49:58.037Z,1000.34
2019-03-03T13:50:58.035Z,1000.28
2019-03-03T13:53:02.095Z,1000.28
2019-03-03T13:54:02.091Z,1000.24
2019-03-03T13:56:06.121Z,1000.22
2019-03-03T13:57:06.149Z,1000.27
2019-03-03T13:59:10.197Z,1000.16
2019-03-03T14:00:10.208Z,1000.16
2019-03-03T14:02:14.233Z,1000.17
2019-03-03T14:03:14.260Z,1000.22
2019-03-03T14:05:18.289Z,1000.13
2019-03-03T14:06:18.318Z,1000.13
2019-03-03T14:08:22.342Z,1000.11
2019-03-03T14:09:22.373Z,1000.20
2019-03-03T14:11:26.398Z,1000.23
2019-03-03T14:12:26.425Z,1000.10
2019-03-03T14:14:30.472Z,1000.02
2019-03-03T14:15:30.485Z,1000.05
2019-03-03T14:17:34.507Z,1000.06
2019-03-03T14:18:34.536Z,1000.06
2019-03-03T14:20:38.563Z,1000.06
2019-03-03T14:21:38.590Z,999.99
2019-03-03T14:23:42.616Z,1000.04
2019-03-03T14:24:42.644Z,999.99
2019-03-03T14:26:35.597Z,1000.03
2019-03-03T14:27:35.623Z,999.96
2019-03-03T14:29:39.682Z,999.99
2019-03-03T14:30:39.678Z,999.92
2019-03-03T14:32:43.709Z,999.96
2019-03-03T14:33:43.733Z,1000.00
2019-03-03T14:35:47.762Z,1000.04
2019-03-03T14:36:47.789Z,999.96
2019-03-03T14:38:51.819Z,1000.18
2019-03-03T14:39:51.847Z,1000.02
2019-03-03T14:41:55.875Z,1000.17
2019-03-03T14:42:55.903Z,999.98
2019-03-03T14:44:59.937Z,1000.02
2019-03-03T14:45:59.960Z,1000.02
2019-03-03T14:48:03.995Z,999.98
2019-03-03T14:49:04.021Z,1000.00
2019-03-03T14:51:08.056Z,999.98
2019-03-03T14:52:08.077Z,1000.03
2019-03-03T14:54:01.226Z,999.93
2019-03-03T14:55:01.254Z,999.91
2019-03-03T14:56:54.207Z,1000.05
2019-03-03T14:57:54.231Z,999.93
2019-03-03T14:59:58.257Z,999.92
2019-03-03T15:00:58.284Z,999.86
2019-03-03T15:03:02.321Z,999.90
2019-03-03T15:04:02.345Z,999.90
2019-03-03T15:06:06.381Z,999.89
2019-03-03T15:07:06.409Z,999.87
2019-03-03T15:09:10.458Z,999.92
2019-03-03T15:10:10.462Z,999.91
2019-03-03T15:12:14.491Z,999.97
2019-03-03T15:13:16.058Z,1000.02
2019-03-03T15:15:18.547Z,999.96
2019-03-03T15:16:18.575Z,1000.03
2019-03-03T15:18:22.598Z,1000.05
2019-03-03T15:19:22.626Z,999.95
2019-03-03T15:21:26.658Z,999.95
2019-03-03T15:22:26.686Z,1000.16
2019-03-03T15:24:30.718Z,999.90
2019-03-03T15:25:30.746Z,999.92
2019-03-03T15:27:34.773Z,999.93
2019-03-03T15:28:34.800Z,999.93
2019-03-03T15:30:38.826Z,999.91
2019-03-03T15:31:38.853Z,999.84
2019-03-03T15:33:42.881Z,999.88
2019-03-03T15:34:42.909Z,999.74
2019-03-03T15:36:35.859Z,999.78
2019-03-03T15:37:35.885Z,999.74
2019-03-03T15:39:40.027Z,999.74
2019-03-03T15:40:39.946Z,999.68